sensor_id;sensor_type;location;lat;lon;timestamp;P1;durP1;ratioP1;P2;durP2;ratioP2
56999;SDS011;42891;50.006;21.964;2023-02-28T00:00:46;32.08;;;15.52;;
56999;SDS011;42891;50.006;21.964;2023-02-28T00:04:47;37.97;;;17.20;;
56999;SDS011;42891;50.006;21.964;2023-02-28T00:08:52;33.58;;;16.25;;
56999;SDS011;42891;50.006;21.964;2023-02-28T00:12:53;31.65;;;15.60;;
56999;SDS011;42891;50.006;21.964;2023-02-28T00:16:56;32.33;;;15.52;;
56999;SDS011;42891;50.006;21.964;2023-02-28T00:20:57;30.17;;;14.55;;
56999;SDS011;42891;50.006;21.964;2023-02-28T00:24:57;26.10;;;14.20;;
56999;SDS011;42891;50.006;21.964;2023-02-28T00:28:58;27.27;;;14.63;;
56999;SDS011;42891;50.006;21.964;2023-02-28T00:32:58;30.17;;;15.45;;
56999;SDS011;42891;50.006;21.964;2023-02-28T00:36:59;28.23;;;14.45;;
56999;SDS011;42891;50.006;21.964;2023-02-28T00:40:59;26.83;;;14.13;;
56999;SDS011;42891;50.006;21.964;2023-02-28T00:45:04;24.20;;;13.70;;
56999;SDS011;42891;50.006;21.964;2023-02-28T00:49:05;21.55;;;12.70;;
56999;SDS011;42891;50.006;21.964;2023-02-28T00:53:05;23.13;;;12.90;;
56999;SDS011;42891;50.006;21.964;2023-02-28T00:57:05;26.30;;;13.43;;
56999;SDS011;42891;50.006;21.964;2023-02-28T01:01:06;25.48;;;13.38;;
56999;SDS011;42891;50.006;21.964;2023-02-28T01:05:06;32.97;;;17.25;;
56999;SDS011;42891;50.006;21.964;2023-02-28T01:09:07;33.10;;;18.17;;
56999;SDS011;42891;50.006;21.964;2023-02-28T01:13:08;29.52;;;18.23;;
56999;SDS011;42891;50.006;21.964;2023-02-28T01:17:08;34.03;;;19.58;;
56999;SDS011;42891;50.006;21.964;2023-02-28T01:21:13;42.33;;;21.60;;
56999;SDS011;42891;50.006;21.964;2023-02-28T01:25:15;45.13;;;21.63;;
56999;SDS011;42891;50.006;21.964;2023-02-28T01:29:15;38.22;;;21.40;;
56999;SDS011;42891;50.006;21.964;2023-02-28T01:33:16;41.85;;;22.20;;
56999;SDS011;42891;50.006;21.964;2023-02-28T01:37:16;40.83;;;21.38;;
56999;SDS011;42891;50.006;21.964;2023-02-28T01:41:24;35.97;;;19.88;;
56999;SDS011;42891;50.006;21.964;2023-02-28T01:45:29;35.40;;;19.23;;
56999;SDS011;42891;50.006;21.964;2023-02-28T01:49:31;33.75;;;16.65;;
56999;SDS011;42891;50.006;21.964;2023-02-28T01:53:35;35.00;;;18.48;;
56999;SDS011;42891;50.006;21.964;2023-02-28T01:57:40;31.65;;;17.70;;
56999;SDS011;42891;50.006;21.964;2023-02-28T02:01:46;36.75;;;19.33;;
56999;SDS011;42891;50.006;21.964;2023-02-28T02:05:46;33.63;;;18.83;;
56999;SDS011;42891;50.006;21.964;2023-02-28T02:09:47;36.08;;;19.35;;
56999;SDS011;42891;50.006;21.964;2023-02-28T02:13:52;46.85;;;25.05;;
56999;SDS011;42891;50.006;21.964;2023-02-28T02:17:57;46.35;;;27.40;;
56999;SDS011;42891;50.006;21.964;2023-02-28T02:26:51;47.58;;;27.67;;
56999;SDS011;42891;50.006;21.964;2023-02-28T02:31:13;46.22;;;25.95;;
56999;SDS011;42891;50.006;21.964;2023-02-28T02:40:00;38.35;;;21.73;;
56999;SDS011;42891;50.006;21.964;2023-02-28T02:44:42;43.88;;;22.60;;
56999;SDS011;42891;50.006;21.964;2023-02-28T02:48:34;38.40;;;20.00;;
56999;SDS011;42891;50.006;21.964;2023-02-28T02:52:42;37.00;;;20.30;;
56999;SDS011;42891;50.006;21.964;2023-02-28T02:56:46;41.13;;;20.65;;
56999;SDS011;42891;50.006;21.964;2023-02-28T03:00:49;40.85;;;22.50;;
56999;SDS011;42891;50.006;21.964;2023-02-28T03:04:56;35.55;;;21.40;;
56999;SDS011;42891;50.006;21.964;2023-02-28T03:09:02;40.05;;;22.27;;
56999;SDS011;42891;50.006;21.964;2023-02-28T03:18:15;40.75;;;21.00;;
56999;SDS011;42891;50.006;21.964;2023-02-28T03:26:25;43.15;;;22.52;;
56999;SDS011;42891;50.006;21.964;2023-02-28T03:34:38;41.85;;;20.92;;
56999;SDS011;42891;50.006;21.964;2023-02-28T03:38:48;44.03;;;22.15;;
56999;SDS011;42891;50.006;21.964;2023-02-28T03:42:55;39.38;;;21.33;;
56999;SDS011;42891;50.006;21.964;2023-02-28T03:47:03;42.05;;;21.55;;
56999;SDS011;42891;50.006;21.964;2023-02-28T03:55:11;38.90;;;22.15;;
56999;SDS011;42891;50.006;21.964;2023-02-28T03:59:17;43.03;;;22.83;;
56999;SDS011;42891;50.006;21.964;2023-02-28T04:03:23;42.28;;;21.52;;
56999;SDS011;42891;50.006;21.964;2023-02-28T04:07:23;41.58;;;21.98;;
56999;SDS011;42891;50.006;21.964;2023-02-28T04:11:29;42.70;;;21.45;;
56999;SDS011;42891;50.006;21.964;2023-02-28T04:15:31;47.30;;;23.13;;
56999;SDS011;42891;50.006;21.964;2023-02-28T04:19:31;48.28;;;24.33;;
56999;SDS011;42891;50.006;21.964;2023-02-28T04:23:32;51.00;;;25.17;;
56999;SDS011;42891;50.006;21.964;2023-02-28T04:27:33;50.10;;;25.02;;
56999;SDS011;42891;50.006;21.964;2023-02-28T04:31:33;46.17;;;23.65;;
56999;SDS011;42891;50.006;21.964;2023-02-28T04:35:33;47.97;;;24.15;;
56999;SDS011;42891;50.006;21.964;2023-02-28T04:39:35;42.40;;;23.38;;
56999;SDS011;42891;50.006;21.964;2023-02-28T04:43:36;48.85;;;23.42;;
56999;SDS011;42891;50.006;21.964;2023-02-28T04:47:36;43.38;;;22.80;;
56999;SDS011;42891;50.006;21.964;2023-02-28T04:51:37;51.33;;;23.60;;
56999;SDS011;42891;50.006;21.964;2023-02-28T04:55:37;51.10;;;25.52;;
56999;SDS011;42891;50.006;21.964;2023-02-28T04:59:40;49.88;;;25.58;;
56999;SDS011;42891;50.006;21.964;2023-02-28T05:03:40;48.35;;;26.77;;
56999;SDS011;42891;50.006;21.964;2023-02-28T05:07:40;52.65;;;27.17;;
56999;SDS011;42891;50.006;21.964;2023-02-28T05:11:40;45.83;;;26.93;;
56999;SDS011;42891;50.006;21.964;2023-02-28T05:15:41;56.90;;;28.15;;
56999;SDS011;42891;50.006;21.964;2023-02-28T05:19:41;55.47;;;27.80;;
56999;SDS011;42891;50.006;21.964;2023-02-28T05:23:41;57.92;;;29.50;;
56999;SDS011;42891;50.006;21.964;2023-02-28T05:27:42;59.53;;;32.75;;
56999;SDS011;42891;50.006;21.964;2023-02-28T05:31:43;55.03;;;30.67;;
56999;SDS011;42891;50.006;21.964;2023-02-28T05:35:43;58.42;;;31.95;;
56999;SDS011;42891;50.006;21.964;2023-02-28T05:39:43;62.25;;;33.05;;
56999;SDS011;42891;50.006;21.964;2023-02-28T05:43:43;66.15;;;35.35;;
56999;SDS011;42891;50.006;21.964;2023-02-28T05:47:44;68.87;;;35.43;;
56999;SDS011;42891;50.006;21.964;2023-02-28T05:51:44;67.00;;;34.87;;
56999;SDS011;42891;50.006;21.964;2023-02-28T05:55:44;64.95;;;33.75;;
56999;SDS011;42891;50.006;21.964;2023-02-28T05:59:44;66.68;;;31.83;;
56999;SDS011;42891;50.006;21.964;2023-02-28T06:03:45;64.97;;;32.72;;
56999;SDS011;42891;50.006;21.964;2023-02-28T06:07:45;63.15;;;34.03;;
56999;SDS011;42891;50.006;21.964;2023-02-28T06:11:45;65.40;;;34.53;;
56999;SDS011;42891;50.006;21.964;2023-02-28T06:15:46;73.07;;;32.38;;
56999;SDS011;42891;50.006;21.964;2023-02-28T06:19:46;67.03;;;32.30;;
56999;SDS011;42891;50.006;21.964;2023-02-28T06:23:47;61.60;;;31.35;;
56999;SDS011;42891;50.006;21.964;2023-02-28T06:27:48;59.35;;;31.33;;
56999;SDS011;42891;50.006;21.964;2023-02-28T06:31:49;71.05;;;38.78;;
56999;SDS011;42891;50.006;21.964;2023-02-28T06:35:50;75.45;;;40.17;;
56999;SDS011;42891;50.006;21.964;2023-02-28T06:39:50;65.38;;;37.30;;
56999;SDS011;42891;50.006;21.964;2023-02-28T06:43:51;75.57;;;39.20;;
56999;SDS011;42891;50.006;21.964;2023-02-28T06:47:51;73.88;;;36.25;;
56999;SDS011;42891;50.006;21.964;2023-02-28T06:51:52;65.45;;;35.88;;
56999;SDS011;42891;50.006;21.964;2023-02-28T06:55:53;74.85;;;35.90;;
56999;SDS011;42891;50.006;21.964;2023-02-28T06:59:54;70.78;;;32.72;;
56999;SDS011;42891;50.006;21.964;2023-02-28T07:03:54;74.07;;;35.17;;
56999;SDS011;42891;50.006;21.964;2023-02-28T07:07:55;75.53;;;33.80;;
56999;SDS011;42891;50.006;21.964;2023-02-28T07:11:55;51.08;;;26.77;;
56999;SDS011;42891;50.006;21.964;2023-02-28T07:15:56;57.60;;;29.00;;
56999;SDS011;42891;50.006;21.964;2023-02-28T07:19:58;56.63;;;28.33;;
56999;SDS011;42891;50.006;21.964;2023-02-28T07:23:58;51.90;;;26.73;;
56999;SDS011;42891;50.006;21.964;2023-02-28T07:27:59;45.95;;;23.88;;
56999;SDS011;42891;50.006;21.964;2023-02-28T07:32:00;48.45;;;24.83;;
56999;SDS011;42891;50.006;21.964;2023-02-28T07:36:04;43.55;;;23.02;;
56999;SDS011;42891;50.006;21.964;2023-02-28T07:40:14;47.15;;;24.73;;
56999;SDS011;42891;50.006;21.964;2023-02-28T07:44:14;42.50;;;23.10;;
56999;SDS011;42891;50.006;21.964;2023-02-28T07:48:14;40.70;;;22.20;;
56999;SDS011;42891;50.006;21.964;2023-02-28T07:52:15;40.10;;;21.52;;
56999;SDS011;42891;50.006;21.964;2023-02-28T07:56:15;33.60;;;18.80;;
56999;SDS011;42891;50.006;21.964;2023-02-28T08:00:16;42.78;;;20.95;;
56999;SDS011;42891;50.006;21.964;2023-02-28T08:04:17;41.65;;;20.88;;
56999;SDS011;42891;50.006;21.964;2023-02-28T08:08:17;45.78;;;23.50;;
56999;SDS011;42891;50.006;21.964;2023-02-28T08:12:18;45.55;;;22.98;;
56999;SDS011;42891;50.006;21.964;2023-02-28T08:16:18;35.30;;;20.23;;
56999;SDS011;42891;50.006;21.964;2023-02-28T08:20:22;43.35;;;23.05;;
56999;SDS011;42891;50.006;21.964;2023-02-28T08:24:23;42.35;;;24.25;;
56999;SDS011;42891;50.006;21.964;2023-02-28T08:28:23;38.60;;;22.80;;
56999;SDS011;42891;50.006;21.964;2023-02-28T08:32:24;41.55;;;24.17;;
56999;SDS011;42891;50.006;21.964;2023-02-28T08:36:25;40.35;;;22.05;;
56999;SDS011;42891;50.006;21.964;2023-02-28T08:40:28;40.85;;;21.38;;
56999;SDS011;42891;50.006;21.964;2023-02-28T08:44:28;29.30;;;16.95;;
56999;SDS011;42891;50.006;21.964;2023-02-28T08:48:29;19.60;;;11.73;;
56999;SDS011;42891;50.006;21.964;2023-02-28T08:52:30;26.45;;;11.88;;
56999;SDS011;42891;50.006;21.964;2023-02-28T08:56:30;24.67;;;14.27;;
56999;SDS011;42891;50.006;21.964;2023-02-28T09:00:31;20.27;;;11.40;;
56999;SDS011;42891;50.006;21.964;2023-02-28T09:04:33;17.88;;;10.93;;
56999;SDS011;42891;50.006;21.964;2023-02-28T09:08:33;19.92;;;11.05;;
56999;SDS011;42891;50.006;21.964;2023-02-28T09:12:34;17.60;;;10.32;;
56999;SDS011;42891;50.006;21.964;2023-02-28T09:16:35;15.77;;;8.88;;
56999;SDS011;42891;50.006;21.964;2023-02-28T09:20:39;13.48;;;9.13;;
56999;SDS011;42891;50.006;21.964;2023-02-28T09:24:40;14.35;;;9.23;;
56999;SDS011;42891;50.006;21.964;2023-02-28T09:28:40;14.32;;;8.90;;
56999;SDS011;42891;50.006;21.964;2023-02-28T09:32:41;13.68;;;9.13;;
56999;SDS011;42891;50.006;21.964;2023-02-28T09:36:41;16.90;;;10.13;;
56999;SDS011;42891;50.006;21.964;2023-02-28T09:40:47;15.80;;;10.10;;
56999;SDS011;42891;50.006;21.964;2023-02-28T09:44:49;17.20;;;10.40;;
56999;SDS011;42891;50.006;21.964;2023-02-28T09:48:50;19.95;;;10.98;;
56999;SDS011;42891;50.006;21.964;2023-02-28T09:52:52;20.45;;;11.68;;
56999;SDS011;42891;50.006;21.964;2023-02-28T10:05:26;14.52;;;9.77;;
56999;SDS011;42891;50.006;21.964;2023-02-28T10:09:31;16.10;;;9.93;;
56999;SDS011;42891;50.006;21.964;2023-02-28T10:13:34;16.10;;;9.70;;
56999;SDS011;42891;50.006;21.964;2023-02-28T10:17:38;16.58;;;9.70;;
56999;SDS011;42891;50.006;21.964;2023-02-28T10:21:43;13.85;;;9.07;;
56999;SDS011;42891;50.006;21.964;2023-02-28T10:25:54;14.27;;;8.85;;
56999;SDS011;42891;50.006;21.964;2023-02-28T10:29:59;15.27;;;9.18;;
56999;SDS011;42891;50.006;21.964;2023-02-28T10:34:00;15.32;;;8.75;;
56999;SDS011;42891;50.006;21.964;2023-02-28T10:38:02;14.45;;;9.23;;
56999;SDS011;42891;50.006;21.964;2023-02-28T10:42:22;12.18;;;8.18;;
56999;SDS011;42891;50.006;21.964;2023-02-28T10:46:27;14.45;;;9.13;;
56999;SDS011;42891;50.006;21.964;2023-02-28T10:50:42;15.02;;;9.50;;
56999;SDS011;42891;50.006;21.964;2023-02-28T10:54:50;17.20;;;9.38;;
56999;SDS011;42891;50.006;21.964;2023-02-28T10:59:30;13.73;;;9.27;;
56999;SDS011;42891;50.006;21.964;2023-02-28T11:03:34;12.95;;;9.25;;
56999;SDS011;42891;50.006;21.964;2023-02-28T11:07:35;13.50;;;8.63;;
56999;SDS011;42891;50.006;21.964;2023-02-28T11:11:45;14.15;;;8.38;;
56999;SDS011;42891;50.006;21.964;2023-02-28T11:15:57;15.75;;;9.68;;
56999;SDS011;42891;50.006;21.964;2023-02-28T11:20:01;14.88;;;9.35;;
56999;SDS011;42891;50.006;21.964;2023-02-28T11:24:13;16.15;;;9.15;;
56999;SDS011;42891;50.006;21.964;2023-02-28T11:32:28;13.63;;;8.80;;
56999;SDS011;42891;50.006;21.964;2023-02-28T11:36:31;18.80;;;10.93;;
56999;SDS011;42891;50.006;21.964;2023-02-28T12:03:03;15.52;;;10.02;;
56999;SDS011;42891;50.006;21.964;2023-02-28T12:11:55;15.23;;;9.90;;
56999;SDS011;42891;50.006;21.964;2023-02-28T12:25:04;13.43;;;9.48;;
56999;SDS011;42891;50.006;21.964;2023-02-28T12:29:22;17.48;;;10.50;;
56999;SDS011;42891;50.006;21.964;2023-02-28T12:33:27;16.45;;;10.85;;
56999;SDS011;42891;50.006;21.964;2023-02-28T12:46:09;15.73;;;10.07;;
56999;SDS011;42891;50.006;21.964;2023-02-28T12:50:14;17.17;;;10.55;;
56999;SDS011;42891;50.006;21.964;2023-02-28T13:10:59;16.88;;;10.75;;
56999;SDS011;42891;50.006;21.964;2023-02-28T13:19:28;16.88;;;10.90;;
56999;SDS011;42891;50.006;21.964;2023-02-28T13:23:38;14.90;;;10.50;;
56999;SDS011;42891;50.006;21.964;2023-02-28T13:27:41;14.27;;;9.77;;
56999;SDS011;42891;50.006;21.964;2023-02-28T13:40:32;16.20;;;9.80;;
56999;SDS011;42891;50.006;21.964;2023-02-28T13:53:51;12.77;;;8.82;;
56999;SDS011;42891;50.006;21.964;2023-02-28T14:02:34;18.77;;;11.63;;
56999;SDS011;42891;50.006;21.964;2023-02-28T14:06:37;12.60;;;8.70;;
56999;SDS011;42891;50.006;21.964;2023-02-28T14:10:46;19.00;;;13.27;;
56999;SDS011;42891;50.006;21.964;2023-02-28T14:19:00;10.82;;;8.38;;
56999;SDS011;42891;50.006;21.964;2023-02-28T14:31:48;11.93;;;8.13;;
56999;SDS011;42891;50.006;21.964;2023-02-28T14:36:23;16.48;;;10.60;;
56999;SDS011;42891;50.006;21.964;2023-02-28T14:40:28;13.52;;;8.32;;
56999;SDS011;42891;50.006;21.964;2023-02-28T14:44:32;11.83;;;8.27;;
56999;SDS011;42891;50.006;21.964;2023-02-28T14:48:32;10.07;;;7.80;;
56999;SDS011;42891;50.006;21.964;2023-02-28T14:52:34;11.68;;;9.38;;
56999;SDS011;42891;50.006;21.964;2023-02-28T14:56:35;10.88;;;8.00;;
56999;SDS011;42891;50.006;21.964;2023-02-28T15:00:46;18.85;;;11.90;;
56999;SDS011;42891;50.006;21.964;2023-02-28T15:05:02;14.02;;;8.55;;
56999;SDS011;42891;50.006;21.964;2023-02-28T15:09:13;15.75;;;9.20;;
56999;SDS011;42891;50.006;21.964;2023-02-28T15:13:15;13.82;;;9.20;;
56999;SDS011;42891;50.006;21.964;2023-02-28T15:17:19;15.00;;;9.27;;
56999;SDS011;42891;50.006;21.964;2023-02-28T15:25:27;14.50;;;9.00;;
56999;SDS011;42891;50.006;21.964;2023-02-28T15:29:29;12.85;;;8.75;;
56999;SDS011;42891;50.006;21.964;2023-02-28T15:33:32;16.35;;;10.85;;
56999;SDS011;42891;50.006;21.964;2023-02-28T15:37:40;18.05;;;11.30;;
56999;SDS011;42891;50.006;21.964;2023-02-28T15:41:46;23.05;;;13.20;;
56999;SDS011;42891;50.006;21.964;2023-02-28T15:45:49;20.70;;;12.38;;
56999;SDS011;42891;50.006;21.964;2023-02-28T15:49:57;23.83;;;14.38;;
56999;SDS011;42891;50.006;21.964;2023-02-28T15:54:02;25.88;;;18.58;;
56999;SDS011;42891;50.006;21.964;2023-02-28T15:58:07;26.50;;;16.13;;
56999;SDS011;42891;50.006;21.964;2023-02-28T16:02:14;28.75;;;16.83;;
56999;SDS011;42891;50.006;21.964;2023-02-28T16:10:34;100.82;;;49.00;;
56999;SDS011;42891;50.006;21.964;2023-02-28T16:14:35;98.07;;;46.53;;
56999;SDS011;42891;50.006;21.964;2023-02-28T16:18:37;110.60;;;48.58;;
56999;SDS011;42891;50.006;21.964;2023-02-28T16:22:38;80.20;;;36.63;;
56999;SDS011;42891;50.006;21.964;2023-02-28T16:26:41;81.80;;;38.07;;
56999;SDS011;42891;50.006;21.964;2023-02-28T16:30:45;80.35;;;41.55;;
56999;SDS011;42891;50.006;21.964;2023-02-28T16:34:46;73.85;;;40.70;;
56999;SDS011;42891;50.006;21.964;2023-02-28T16:38:46;76.43;;;45.47;;
56999;SDS011;42891;50.006;21.964;2023-02-28T16:42:48;71.85;;;40.97;;
56999;SDS011;42891;50.006;21.964;2023-02-28T16:46:50;82.93;;;44.35;;
56999;SDS011;42891;50.006;21.964;2023-02-28T16:50:51;87.80;;;46.70;;
56999;SDS011;42891;50.006;21.964;2023-02-28T16:54:51;103.47;;;53.08;;
56999;SDS011;42891;50.006;21.964;2023-02-28T16:58:52;132.52;;;63.08;;
56999;SDS011;42891;50.006;21.964;2023-02-28T17:02:59;122.93;;;56.83;;
56999;SDS011;42891;50.006;21.964;2023-02-28T17:06:59;112.47;;;52.58;;
56999;SDS011;42891;50.006;21.964;2023-02-28T17:11:00;115.28;;;52.13;;
56999;SDS011;42891;50.006;21.964;2023-02-28T17:15:01;105.53;;;50.78;;
56999;SDS011;42891;50.006;21.964;2023-02-28T17:19:03;108.93;;;53.22;;
56999;SDS011;42891;50.006;21.964;2023-02-28T17:23:06;143.20;;;63.80;;
56999;SDS011;42891;50.006;21.964;2023-02-28T17:27:09;290.67;;;108.95;;
56999;SDS011;42891;50.006;21.964;2023-02-28T17:31:13;218.52;;;87.78;;
56999;SDS011;42891;50.006;21.964;2023-02-28T17:35:13;186.00;;;77.25;;
56999;SDS011;42891;50.006;21.964;2023-02-28T17:39:14;193.48;;;81.57;;
56999;SDS011;42891;50.006;21.964;2023-02-28T17:43:24;208.80;;;91.50;;
56999;SDS011;42891;50.006;21.964;2023-02-28T17:47:26;283.75;;;114.93;;
56999;SDS011;42891;50.006;21.964;2023-02-28T17:51:26;192.73;;;87.05;;
56999;SDS011;42891;50.006;21.964;2023-02-28T17:55:26;213.55;;;96.95;;
56999;SDS011;42891;50.006;21.964;2023-02-28T17:59:27;195.98;;;86.95;;
56999;SDS011;42891;50.006;21.964;2023-02-28T18:03:33;171.57;;;80.25;;
56999;SDS011;42891;50.006;21.964;2023-02-28T18:07:33;233.07;;;103.65;;
56999;SDS011;42891;50.006;21.964;2023-02-28T18:11:34;255.43;;;117.85;;
56999;SDS011;42891;50.006;21.964;2023-02-28T18:15:44;312.33;;;140.85;;
56999;SDS011;42891;50.006;21.964;2023-02-28T18:19:45;325.88;;;148.85;;
56999;SDS011;42891;50.006;21.964;2023-02-28T18:23:45;591.95;;;281.00;;
56999;SDS011;42891;50.006;21.964;2023-02-28T18:27:49;684.92;;;355.38;;
56999;SDS011;42891;50.006;21.964;2023-02-28T18:31:58;520.50;;;257.63;;
56999;SDS011;42891;50.006;21.964;2023-02-28T18:36:01;595.85;;;297.83;;
56999;SDS011;42891;50.006;21.964;2023-02-28T18:40:01;501.90;;;252.07;;
56999;SDS011;42891;50.006;21.964;2023-02-28T18:44:02;525.95;;;259.42;;
56999;SDS011;42891;50.006;21.964;2023-02-28T18:48:02;492.42;;;238.70;;
56999;SDS011;42891;50.006;21.964;2023-02-28T18:52:03;468.58;;;215.82;;
56999;SDS011;42891;50.006;21.964;2023-02-28T18:56:04;428.95;;;204.68;;
56999;SDS011;42891;50.006;21.964;2023-02-28T19:00:05;406.52;;;184.40;;
56999;SDS011;42891;50.006;21.964;2023-02-28T19:04:06;343.13;;;147.50;;
56999;SDS011;42891;50.006;21.964;2023-02-28T19:08:11;327.53;;;143.27;;
56999;SDS011;42891;50.006;21.964;2023-02-28T19:12:12;335.88;;;146.60;;
56999;SDS011;42891;50.006;21.964;2023-02-28T19:16:13;306.90;;;143.83;;
56999;SDS011;42891;50.006;21.964;2023-02-28T19:20:15;249.57;;;120.93;;
56999;SDS011;42891;50.006;21.964;2023-02-28T19:24:16;256.27;;;120.90;;
56999;SDS011;42891;50.006;21.964;2023-02-28T19:28:16;234.90;;;108.77;;
56999;SDS011;42891;50.006;21.964;2023-02-28T19:32:17;219.93;;;107.22;;
56999;SDS011;42891;50.006;21.964;2023-02-28T19:36:19;215.55;;;104.55;;
56999;SDS011;42891;50.006;21.964;2023-02-28T19:40:20;200.07;;;96.57;;
56999;SDS011;42891;50.006;21.964;2023-02-28T19:44:22;191.88;;;92.13;;
56999;SDS011;42891;50.006;21.964;2023-02-28T19:48:22;193.40;;;91.75;;
56999;SDS011;42891;50.006;21.964;2023-02-28T19:52:25;215.18;;;106.68;;
56999;SDS011;42891;50.006;21.964;2023-02-28T19:56:25;186.68;;;92.38;;
56999;SDS011;42891;50.006;21.964;2023-02-28T20:00:25;227.48;;;109.70;;
56999;SDS011;42891;50.006;21.964;2023-02-28T20:04:26;249.52;;;116.72;;
56999;SDS011;42891;50.006;21.964;2023-02-28T20:08:26;246.38;;;114.63;;
56999;SDS011;42891;50.006;21.964;2023-02-28T20:12:26;224.07;;;104.13;;
56999;SDS011;42891;50.006;21.964;2023-02-28T20:16:27;227.18;;;107.95;;
56999;SDS011;42891;50.006;21.964;2023-02-28T20:20:29;209.35;;;101.30;;
56999;SDS011;42891;50.006;21.964;2023-02-28T20:24:29;215.02;;;102.47;;
56999;SDS011;42891;50.006;21.964;2023-02-28T20:28:29;211.83;;;104.63;;
56999;SDS011;42891;50.006;21.964;2023-02-28T20:32:30;287.13;;;127.22;;
56999;SDS011;42891;50.006;21.964;2023-02-28T20:36:32;319.55;;;136.63;;
56999;SDS011;42891;50.006;21.964;2023-02-28T20:40:32;304.02;;;126.15;;
56999;SDS011;42891;50.006;21.964;2023-02-28T20:44:32;315.33;;;138.05;;
56999;SDS011;42891;50.006;21.964;2023-02-28T20:48:33;323.88;;;137.30;;
56999;SDS011;42891;50.006;21.964;2023-02-28T20:52:35;349.55;;;154.23;;
56999;SDS011;42891;50.006;21.964;2023-02-28T20:56:35;364.33;;;158.13;;
56999;SDS011;42891;50.006;21.964;2023-02-28T21:00:38;346.75;;;152.50;;
56999;SDS011;42891;50.006;21.964;2023-02-28T21:04:39;336.88;;;150.25;;
56999;SDS011;42891;50.006;21.964;2023-02-28T21:08:39;351.27;;;153.25;;
56999;SDS011;42891;50.006;21.964;2023-02-28T21:12:39;346.70;;;155.68;;
56999;SDS011;42891;50.006;21.964;2023-02-28T21:16:40;349.42;;;159.00;;
56999;SDS011;42891;50.006;21.964;2023-02-28T21:20:41;305.63;;;144.10;;
56999;SDS011;42891;50.006;21.964;2023-02-28T21:24:41;282.15;;;126.07;;
56999;SDS011;42891;50.006;21.964;2023-02-28T21:28:43;263.70;;;123.90;;
56999;SDS011;42891;50.006;21.964;2023-02-28T21:32:47;273.27;;;128.13;;
56999;SDS011;42891;50.006;21.964;2023-02-28T21:36:47;261.58;;;123.95;;
56999;SDS011;42891;50.006;21.964;2023-02-28T21:40:48;280.40;;;126.32;;
56999;SDS011;42891;50.006;21.964;2023-02-28T21:44:50;276.90;;;130.75;;
56999;SDS011;42891;50.006;21.964;2023-02-28T21:48:50;273.47;;;131.77;;
56999;SDS011;42891;50.006;21.964;2023-02-28T21:52:51;292.83;;;135.43;;
56999;SDS011;42891;50.006;21.964;2023-02-28T21:56:51;313.23;;;148.07;;
56999;SDS011;42891;50.006;21.964;2023-02-28T22:00:52;291.35;;;140.02;;
56999;SDS011;42891;50.006;21.964;2023-02-28T22:04:52;294.65;;;136.98;;
56999;SDS011;42891;50.006;21.964;2023-02-28T22:08:54;275.40;;;130.70;;
56999;SDS011;42891;50.006;21.964;2023-02-28T22:12:55;281.00;;;131.88;;
56999;SDS011;42891;50.006;21.964;2023-02-28T22:17:00;268.00;;;127.03;;
56999;SDS011;42891;50.006;21.964;2023-02-28T22:21:01;280.98;;;132.55;;
56999;SDS011;42891;50.006;21.964;2023-02-28T22:25:01;414.15;;;177.48;;
56999;SDS011;42891;50.006;21.964;2023-02-28T22:29:01;1025.97;;;380.63;;
56999;SDS011;42891;50.006;21.964;2023-02-28T22:33:02;728.72;;;294.02;;
56999;SDS011;42891;50.006;21.964;2023-02-28T22:37:02;520.65;;;218.82;;
56999;SDS011;42891;50.006;21.964;2023-02-28T22:41:03;376.30;;;158.82;;
56999;SDS011;42891;50.006;21.964;2023-02-28T22:45:04;549.60;;;228.20;;
56999;SDS011;42891;50.006;21.964;2023-02-28T22:49:05;471.50;;;207.02;;
56999;SDS011;42891;50.006;21.964;2023-02-28T22:53:05;393.27;;;174.13;;
56999;SDS011;42891;50.006;21.964;2023-02-28T22:57:06;511.53;;;222.97;;
56999;SDS011;42891;50.006;21.964;2023-02-28T23:01:13;549.22;;;234.60;;
56999;SDS011;42891;50.006;21.964;2023-02-28T23:05:14;419.20;;;180.82;;
56999;SDS011;42891;50.006;21.964;2023-02-28T23:09:16;398.92;;;167.23;;
56999;SDS011;42891;50.006;21.964;2023-02-28T23:13:18;448.83;;;194.18;;
56999;SDS011;42891;50.006;21.964;2023-02-28T23:17:19;377.85;;;154.00;;
56999;SDS011;42891;50.006;21.964;2023-02-28T23:21:19;380.23;;;158.13;;
56999;SDS011;42891;50.006;21.964;2023-02-28T23:25:20;285.25;;;123.40;;
56999;SDS011;42891;50.006;21.964;2023-02-28T23:29:21;291.70;;;126.25;;
56999;SDS011;42891;50.006;21.964;2023-02-28T23:33:22;246.23;;;113.60;;
56999;SDS011;42891;50.006;21.964;2023-02-28T23:37:22;245.60;;;110.20;;
56999;SDS011;42891;50.006;21.964;2023-02-28T23:41:23;234.02;;;110.47;;
56999;SDS011;42891;50.006;21.964;2023-02-28T23:45:24;246.02;;;109.95;;
56999;SDS011;42891;50.006;21.964;2023-02-28T23:49:24;243.40;;;112.20;;
56999;SDS011;42891;50.006;21.964;2023-02-28T23:53:24;251.88;;;111.13;;
56999;SDS011;42891;50.006;21.964;2023-02-28T23:57:25;246.82;;;112.35;;
